createdAt,value
2023-01-06T00:00:03.645Z,7.4
2023-01-06T00:02:00.276Z,7.4
2023-01-06T00:06:00.371Z,7.3
2023-01-06T00:08:02.983Z,7.3
2023-01-06T00:10:03.568Z,7.4
2023-01-06T00:11:58.850Z,7.4
2023-01-06T00:14:03.781Z,7.3
2023-01-06T00:18:04.190Z,7.2
2023-01-06T00:20:01.153Z,7.2
2023-01-06T00:22:05.372Z,7.1
2023-01-06T00:23:59.875Z,7.1
2023-01-06T00:26:01.316Z,7.1
2023-01-06T00:30:02.512Z,7
2023-01-06T00:31:58.147Z,6.9
2023-01-06T00:36:03.797Z,6.9
2023-01-06T00:38:01.665Z,6.9
2023-01-06T00:42:00.255Z,7
2023-01-06T00:46:05.684Z,6.9
2023-01-06T00:48:01.799Z,7.1
2023-01-06T00:50:02.262Z,7.1
2023-01-06T00:52:04.837Z,7.1
2023-01-06T00:53:59.853Z,7
2023-01-06T00:55:58.853Z,7
2023-01-06T00:59:59.775Z,6.9
2023-01-06T01:02:03.263Z,6.9
2023-01-06T01:06:00.410Z,6.9
2023-01-06T01:08:01.592Z,6.8
2023-01-06T01:11:58.470Z,6.8
2023-01-06T01:14:01.561Z,6.9
2023-01-06T01:18:02.195Z,6.9
2023-01-06T01:20:04.345Z,6.8
2023-01-06T01:24:03.641Z,6.7
2023-01-06T01:26:00.201Z,6.7
2023-01-06T01:28:05.700Z,6.7
2023-01-06T01:30:04.975Z,6.6
2023-01-06T01:32:01.208Z,6.6
2023-01-06T01:34:05.106Z,6.6
2023-01-06T01:36:04.100Z,6.6
2023-01-06T01:38:00.552Z,6.6
2023-01-06T01:42:05.362Z,6.6
2023-01-06T01:44:02.373Z,6.6
2023-01-06T01:46:04.131Z,6.7
2023-01-06T01:48:02.410Z,6.6
2023-01-06T01:50:02.230Z,6.6
2023-01-06T01:54:01.899Z,6.6
2023-01-06T01:56:02.252Z,6.7
2023-01-06T02:00:03.673Z,6.9
2023-01-06T02:02:00.538Z,6.9
2023-01-06T02:06:03.725Z,7
2023-01-06T02:08:00.616Z,7
2023-01-06T02:12:01.367Z,7
2023-01-06T02:14:03.396Z,7
2023-01-06T02:18:03.668Z,6.8
2023-01-06T02:20:01.897Z,6.8
2023-01-06T02:22:05.617Z,6.7
2023-01-06T02:24:00.375Z,6.8
2023-01-06T02:26:01.140Z,6.7
2023-01-06T02:30:01.387Z,6.9
2023-01-06T02:32:04.026Z,6.8
2023-01-06T02:34:05.516Z,6.9
2023-01-06T02:36:06.945Z,6.9
2023-01-06T02:38:02.084Z,6.9
2023-01-06T02:40:01.560Z,6.9
2023-01-06T02:42:03.331Z,6.8
2023-01-06T02:44:02.094Z,6.9
2023-01-06T02:48:02.159Z,6.9
2023-01-06T02:50:02.158Z,6.9
2023-01-06T02:52:03.495Z,7
2023-01-06T02:54:02.524Z,7
2023-01-06T02:55:58.860Z,6.9
2023-01-06T02:58:05.650Z,6.9
2023-01-06T02:59:58.838Z,7
2023-01-06T03:02:00.290Z,6.9
2023-01-06T03:06:00.430Z,6.8
2023-01-06T03:08:03.900Z,6.9
2023-01-06T03:10:05.612Z,7
2023-01-06T03:12:02.167Z,6.9
2023-01-06T03:14:02.157Z,6.9
2023-01-06T03:18:06.834Z,7
2023-01-06T03:20:01.631Z,7
2023-01-06T03:24:02.509Z,7
2023-01-06T03:26:02.116Z,7
2023-01-06T03:30:01.645Z,7
2023-01-06T03:32:00.204Z,7
2023-01-06T03:34:02.490Z,7
2023-01-06T03:36:02.130Z,7.1
2023-01-06T03:37:58.844Z,7.1
2023-01-06T03:40:04.753Z,7.1
2023-01-06T03:42:02.056Z,7.1
2023-01-06T03:44:00.396Z,7.1
2023-01-06T03:48:01.508Z,7.2
2023-01-06T03:50:03.202Z,7.2
2023-01-06T03:54:00.829Z,7.2
2023-01-06T03:56:03.119Z,7.3
2023-01-06T03:58:04.478Z,7.3
2023-01-06T04:00:00.293Z,7.3
2023-01-06T04:02:00.264Z,7.2
2023-01-06T04:06:02.957Z,7.2
2023-01-06T04:08:03.290Z,7.2
2023-01-06T04:10:03.736Z,7.3
2023-01-06T04:12:02.068Z,7.3
2023-01-06T04:14:02.667Z,7.3
2023-01-06T04:16:06.609Z,7.3
2023-01-06T04:18:01.010Z,7.3
2023-01-06T04:20:02.075Z,7.3
2023-01-06T04:23:58.580Z,7.2
2023-01-06T04:26:02.859Z,7.2
2023-01-06T04:28:03.182Z,7.2
2023-01-06T04:30:01.665Z,7.2
2023-01-06T04:32:02.311Z,7.2
2023-01-06T04:36:02.084Z,7.2
2023-01-06T04:38:03.441Z,7.2
2023-01-06T04:42:00.445Z,7.2
2023-01-06T04:44:02.260Z,7.2
2023-01-06T04:48:00.384Z,7.2
2023-01-06T04:50:03.401Z,7.2
2023-01-06T04:54:01.776Z,7.2
2023-01-06T04:56:00.160Z,7.2
2023-01-06T04:58:03.198Z,7.2
2023-01-06T05:00:02.120Z,7.2
2023-01-06T05:02:02.632Z,7.3
2023-01-06T05:06:01.182Z,7.3
2023-01-06T05:08:02.491Z,7.4
2023-01-06T05:12:00.388Z,7.4
2023-01-06T05:14:01.099Z,7.3
2023-01-06T05:16:04.362Z,7.4
2023-01-06T05:17:59.970Z,7.4
2023-01-06T05:20:00.357Z,7.3
2023-01-06T05:24:00.463Z,7.2
2023-01-06T05:25:59.818Z,7.2
2023-01-06T05:28:03.306Z,7.2
2023-01-06T05:30:00.596Z,7.2
2023-01-06T05:32:02.641Z,7.1
2023-01-06T05:35:58.942Z,7.1
2023-01-06T05:38:02.506Z,7.2
2023-01-06T05:40:04.947Z,7.1
2023-01-06T05:42:01.114Z,7.1
2023-01-06T05:44:01.378Z,7
2023-01-06T05:46:03.289Z,7
2023-01-06T05:48:00.410Z,7
2023-01-06T05:49:59.839Z,7
2023-01-06T05:52:03.768Z,7
2023-01-06T05:53:58.876Z,7
2023-01-06T05:56:03.258Z,6.9
2023-01-06T06:00:03.436Z,6.9
2023-01-06T06:02:00.335Z,6.9
2023-01-06T06:06:02.366Z,6.9
2023-01-06T06:08:00.860Z,6.9
2023-01-06T06:10:03.604Z,6.9
2023-01-06T06:12:00.216Z,6.8
2023-01-06T06:14:00.850Z,6.8
2023-01-06T06:18:03.360Z,6.6
2023-01-06T06:20:00.433Z,6.6
2023-01-06T06:26:01.735Z,6.4
2023-01-06T06:28:03.855Z,6.4
2023-01-06T06:30:03.377Z,6.3
2023-01-06T06:32:03.441Z,6.2
2023-01-06T06:34:03.129Z,6.2
2023-01-06T06:36:01.960Z,6.1
2023-01-06T06:38:01.431Z,6.1
2023-01-06T06:40:03.864Z,6.1
2023-01-06T06:42:00.843Z,6
2023-01-06T06:44:03.099Z,6
2023-01-06T06:46:03.337Z,6.1
2023-01-06T06:48:01.316Z,6.1
2023-01-06T06:50:02.120Z,6
2023-01-06T06:52:03.618Z,5.8
2023-01-06T06:54:01.263Z,5.8
2023-01-06T06:56:01.397Z,5.8
2023-01-06T07:00:02.419Z,5.7
2023-01-06T07:02:03.229Z,5.7
2023-01-06T07:04:03.551Z,5.8
2023-01-06T07:06:01.469Z,5.7
2023-01-06T07:08:01.884Z,5.7
2023-01-06T07:10:04.087Z,5.6
2023-01-06T07:12:01.883Z,5.7
2023-01-06T07:14:03.104Z,5.8
2023-01-06T07:16:01.720Z,5.6
2023-01-06T07:18:02.678Z,5.7
2023-01-06T07:20:02.415Z,5.7
2023-01-06T07:23:58.910Z,5.6
2023-01-06T07:25:58.977Z,5.6
2023-01-06T07:30:01.337Z,5.6
2023-01-06T07:32:00.782Z,5.6
2023-01-06T07:34:07.082Z,5.6
2023-01-06T07:36:00.422Z,5.7
2023-01-06T07:38:02.284Z,5.7
2023-01-06T07:42:00.036Z,5.6
2023-01-06T07:44:03.753Z,5.6
2023-01-06T07:46:03.087Z,5.7
2023-01-06T07:48:02.754Z,5.7
2023-01-06T07:50:01.489Z,5.7
2023-01-06T07:52:03.984Z,5.7
2023-01-06T07:54:02.592Z,5.6
2023-01-06T07:55:58.971Z,5.5
2023-01-06T07:58:03.769Z,5.5
2023-01-06T08:00:03.093Z,5.5
2023-01-06T08:02:03.402Z,5.5
2023-01-06T08:04:03.139Z,5.6
2023-01-06T08:06:03.057Z,5.5
2023-01-06T08:07:59.951Z,5.6
2023-01-06T08:10:03.935Z,5.6
2023-01-06T08:12:06.571Z,5.7
2023-01-06T08:14:00.938Z,5.7
2023-01-06T08:16:03.716Z,5.7
2023-01-06T08:18:01.941Z,5.8
2023-01-06T08:19:59.861Z,5.8
2023-01-06T08:22:03.376Z,5.8
2023-01-06T08:24:00.432Z,5.9
2023-01-06T08:26:02.267Z,5.9
2023-01-06T08:28:03.873Z,6
2023-01-06T08:30:01.467Z,6.1
2023-01-06T08:32:09.705Z,6.3
2023-01-06T08:34:03.510Z,7.4
2023-01-06T08:36:03.604Z,9.8
2023-01-06T08:37:59.749Z,9.8
2023-01-06T08:40:03.785Z,9.8
2023-01-06T08:42:00.440Z,9.9
2023-01-06T08:44:00.912Z,9.8
2023-01-06T08:46:03.796Z,9.8
2023-01-06T08:48:03.738Z,9.8
2023-01-06T08:50:03.215Z,9.8
2023-01-06T08:52:02.937Z,9.8
2023-01-06T08:54:02.922Z,9.7
2023-01-06T08:56:03.099Z,9.7
2023-01-06T08:58:03.455Z,9.8
2023-01-06T09:00:02.928Z,9.8
2023-01-06T09:02:01.746Z,9.8
2023-01-06T09:04:03.890Z,9.8
2023-01-06T09:06:01.836Z,9.8
2023-01-06T09:08:00.908Z,9.8
2023-01-06T09:10:03.423Z,9.8
2023-01-06T09:11:58.913Z,9.7
2023-01-06T09:14:02.220Z,9.7
2023-01-06T09:16:02.926Z,9.7
2023-01-06T09:18:00.529Z,9.7
2023-01-06T09:20:03.181Z,9.7
2023-01-06T09:22:03.355Z,9.7
2023-01-06T09:23:58.535Z,9.7
2023-01-06T09:25:58.583Z,9.7
2023-01-06T09:29:58.598Z,9.7
2023-01-06T09:32:00.455Z,9.8
2023-01-06T09:34:03.681Z,9.8
2023-01-06T09:36:02.841Z,9.9
2023-01-06T09:38:01.059Z,9.9
2023-01-06T09:42:03.087Z,9.9
2023-01-06T09:43:59.921Z,9.9
2023-01-06T09:48:00.920Z,10
2023-01-06T09:50:03.915Z,10
2023-01-06T09:52:07.041Z,10
2023-01-06T09:54:03.139Z,10
2023-01-06T09:56:01.997Z,10.1
2023-01-06T09:58:04.122Z,9.8
2023-01-06T10:02:07.996Z,10
2023-01-06T10:04:13.567Z,10
2023-01-06T10:06:11.895Z,10.1
2023-01-06T10:08:12.290Z,10.1
2023-01-06T10:10:13.428Z,10.1
2023-01-06T10:12:09.522Z,9.5
2023-01-06T10:14:12.309Z,8.7
2023-01-06T10:18:07.622Z,8.2
2023-01-06T10:20:11.364Z,8.8
2023-01-06T10:22:12.205Z,8.5
2023-01-06T10:24:14.756Z,7.9
2023-01-06T10:26:07.853Z,7.6
2023-01-06T10:28:13.500Z,7.5
2023-01-06T10:30:08.980Z,7.4
2023-01-06T10:32:11.155Z,7.3
2023-01-06T10:34:13.382Z,7.4
2023-01-06T10:36:08.497Z,7.3
2023-01-06T10:38:06.933Z,7.2
2023-01-06T10:40:13.739Z,7.4
2023-01-06T10:42:05.459Z,7.3
2023-01-06T10:44:07.195Z,7.3
2023-01-06T10:48:07.544Z,7.1
2023-01-06T10:50:10.528Z,7.2
2023-01-06T10:52:12.855Z,7.2
2023-01-06T10:54:05.803Z,7.3
2023-01-06T10:56:07.282Z,7.5
2023-01-06T10:58:13.307Z,7.3
2023-01-06T11:00:09.515Z,7.2
2023-01-06T11:02:05.872Z,7.5
2023-01-06T11:06:09.995Z,7.7
2023-01-06T11:08:07.060Z,7.3
2023-01-06T11:12:10.492Z,7.3
2023-01-06T11:14:06.990Z,7.3
2023-01-06T11:18:09.722Z,7.4
2023-01-06T11:20:11.223Z,7.6
2023-01-06T11:24:10.144Z,7.9
2023-01-06T11:26:10.438Z,7.9
2023-01-06T11:30:08.124Z,8.2
2023-01-06T11:32:11.281Z,8.4
2023-01-06T11:34:13.329Z,8.4
2023-01-06T11:36:08.126Z,8.1
2023-01-06T11:38:10.449Z,8.5
2023-01-06T11:40:12.985Z,8.7
2023-01-06T11:42:08.693Z,8.4
2023-01-06T11:44:08.539Z,8.1
2023-01-06T11:48:11.828Z,8.4
2023-01-06T11:50:04.437Z,7.7
2023-01-06T11:54:09.250Z,7.5
2023-01-06T11:56:06.320Z,7.3
2023-01-06T11:58:11.139Z,7.3
2023-01-06T12:00:10.125Z,8.5
2023-01-06T12:02:11.937Z,8.4
2023-01-06T12:06:08.210Z,9.3
2023-01-06T12:08:09.048Z,8.8
2023-01-06T12:12:09.474Z,9.4
2023-01-06T12:14:19.505Z,9.4
2023-01-06T12:16:13.526Z,9.1
2023-01-06T12:18:09.530Z,8.4
2023-01-06T12:20:06.296Z,8.1
2023-01-06T12:24:14.810Z,8
2023-01-06T12:26:11.294Z,7.9
2023-01-06T12:28:12.885Z,7.9
2023-01-06T12:30:11.952Z,7.8
2023-01-06T12:36:07.989Z,8.1
2023-01-06T12:38:09.364Z,7.9
2023-01-06T12:42:06.276Z,7.8
2023-01-06T12:44:10.548Z,7.8
2023-01-06T12:48:05.939Z,7.9
2023-01-06T12:50:04.465Z,7.9
2023-01-06T12:52:13.514Z,7.9
2023-01-06T12:54:06.690Z,7.9
2023-01-06T12:56:04.443Z,7.9
2023-01-06T13:00:07.744Z,8.1
2023-01-06T13:02:08.473Z,8.1
2023-01-06T13:06:10.720Z,8.2
2023-01-06T13:08:04.893Z,8.2
2023-01-06T13:10:13.367Z,8.1
2023-01-06T13:12:09.814Z,8.1
2023-01-06T13:14:08.198Z,8.1
2023-01-06T13:18:11.006Z,8.2
2023-01-06T13:20:08.289Z,8.2
2023-01-06T13:24:08.119Z,8.1
2023-01-06T13:26:06.377Z,8.2
2023-01-06T13:28:12.114Z,8.2
2023-01-06T13:30:05.838Z,8.3
2023-01-06T13:32:08.194Z,8.4
2023-01-06T13:34:13.344Z,8.3
2023-01-06T13:36:07.879Z,8.4
2023-01-06T13:38:08.152Z,8.4
2023-01-06T13:42:07.289Z,8.4
2023-01-06T13:44:08.082Z,8.5
2023-01-06T13:48:05.874Z,8.5
2023-01-06T13:50:04.444Z,8.4
2023-01-06T13:54:09.444Z,8.4
2023-01-06T13:56:12.868Z,8.5
2023-01-06T13:58:13.422Z,8.4
2023-01-06T14:00:04.482Z,8.4
2023-01-06T14:02:09.133Z,8.4
2023-01-06T14:06:11.155Z,8.4
2023-01-06T14:08:15.149Z,8.4
2023-01-06T14:12:07.275Z,8.4
2023-01-06T14:14:10.050Z,8.4
2023-01-06T14:16:12.124Z,8.4
2023-01-06T14:18:07.690Z,8.4
2023-01-06T14:21:31.650Z,8.4
2023-01-06T14:23:27.627Z,8.4
2023-01-06T14:25:30.817Z,8.4
2023-01-06T14:27:31.050Z,8.5
2023-01-06T14:29:29.444Z,8.5
2023-01-06T14:31:30.772Z,8.5
2023-01-06T14:33:30.100Z,8.5
2023-01-06T14:35:29.855Z,8.5
2023-01-06T14:37:28.914Z,8.5
2023-01-06T14:43:27.666Z,8.5
2023-01-06T14:45:31.003Z,8.5
2023-01-06T14:47:29.839Z,8.5
2023-01-06T14:49:27.976Z,8.5
2023-01-06T14:51:29.655Z,8.5
2023-01-06T14:53:26.259Z,8.5
2023-01-06T14:55:27.542Z,8.5
2023-01-06T14:57:31.106Z,8.5
2023-01-06T14:59:29.904Z,8.5
2023-01-06T15:01:27.798Z,8.5
2023-01-06T15:05:30.370Z,8.5
2023-01-06T15:07:29.611Z,8.4
2023-01-06T15:09:31.173Z,8.5
2023-01-06T15:11:28.618Z,8.4
2023-01-06T15:13:26.680Z,8.4
2023-01-06T15:15:31.086Z,8.3
2023-01-06T15:17:28.024Z,8.3
2023-01-06T15:19:30.283Z,8.3
2023-01-06T15:21:30.771Z,8.3
2023-01-06T15:23:29.227Z,8.3
2023-01-06T15:25:29.705Z,8.3
2023-01-06T15:29:26.684Z,8.4
2023-01-06T15:31:29.958Z,8.4
2023-01-06T15:33:31.218Z,8.3
2023-01-06T15:35:26.262Z,8.3
2023-01-06T15:37:28.109Z,8.3
2023-01-06T15:39:30.963Z,8.3
2023-01-06T15:41:26.237Z,8.2
2023-01-06T15:43:28.893Z,8.2
2023-01-06T15:45:31.040Z,8.1
2023-01-06T15:47:28.988Z,8.1
2023-01-06T15:49:29.348Z,8.1
2023-01-06T15:51:30.975Z,8.2
2023-01-06T15:53:29.737Z,8.2
2023-01-06T15:55:29.874Z,8.1
2023-01-06T15:57:29.943Z,8.1
2023-01-06T15:59:28.921Z,8.1
2023-01-06T16:01:26.759Z,8
2023-01-06T16:05:30.191Z,8
2023-01-06T16:07:29.727Z,8
2023-01-06T16:09:31.255Z,8
2023-01-06T16:11:28.550Z,8.1
2023-01-06T16:13:29.887Z,8.1
2023-01-06T16:15:31.087Z,8.1
2023-01-06T16:17:26.744Z,8.1
2023-01-06T16:19:28.658Z,8.1
2023-01-06T16:21:31.823Z,8.1
2023-01-06T16:23:29.883Z,8.1
2023-01-06T16:25:30.253Z,8.1
2023-01-06T16:27:30.916Z,8.1
2023-01-06T16:29:29.386Z,8.1
2023-01-06T16:31:28.965Z,8
2023-01-06T16:35:30.393Z,8.1
2023-01-06T16:37:30.227Z,8.1
2023-01-06T16:39:31.143Z,8
2023-01-06T16:41:29.906Z,8
2023-01-06T16:43:29.512Z,8
2023-01-06T16:47:28.065Z,8
2023-01-06T16:49:30.437Z,8
2023-01-06T16:51:30.821Z,8
2023-01-06T16:53:31.321Z,8
2023-01-06T16:55:26.261Z,8
2023-01-06T16:57:30.987Z,8
2023-01-06T16:59:31.069Z,8
2023-01-06T17:01:29.358Z,8
2023-01-06T17:03:31.058Z,8
2023-01-06T17:05:27.202Z,7.9
2023-01-06T17:07:28.118Z,8
2023-01-06T17:09:31.161Z,8
2023-01-06T17:11:29.421Z,8
2023-01-06T17:13:27.908Z,8
2023-01-06T17:15:31.201Z,8
2023-01-06T17:17:30.732Z,8
2023-01-06T17:19:27.980Z,8
2023-01-06T17:23:29.458Z,7.9
2023-01-06T17:25:29.352Z,7.9
2023-01-06T17:27:31.109Z,7.9
2023-01-06T17:29:28.019Z,7.9
2023-01-06T17:31:29.971Z,7.9
2023-01-06T17:33:31.043Z,7.9
2023-01-06T17:37:30.401Z,7.9
2023-01-06T17:39:31.010Z,7.9
2023-01-06T17:41:31.257Z,8
2023-01-06T17:43:28.979Z,8
2023-01-06T17:45:30.902Z,8
2023-01-06T17:47:31.103Z,8.1
2023-01-06T17:49:30.308Z,8
2023-01-06T17:51:31.120Z,7.9
2023-01-06T17:53:29.453Z,7.9
2023-01-06T17:55:30.424Z,7.9
2023-01-06T17:57:31.136Z,7.8
2023-01-06T17:59:26.680Z,7.8
2023-01-06T18:01:30.585Z,7.8
2023-01-06T18:03:30.789Z,7.8
2023-01-06T18:05:29.097Z,7.8
2023-01-06T18:07:29.322Z,7.9
2023-01-06T18:09:31.054Z,7.9
2023-01-06T18:11:27.726Z,7.9
2023-01-06T18:13:28.110Z,8
2023-01-06T18:15:30.952Z,8
2023-01-06T18:17:30.434Z,7.9
2023-01-06T18:19:31.110Z,8
2023-01-06T18:21:30.990Z,8
2023-01-06T18:23:30.299Z,8
2023-01-06T18:25:29.455Z,7.9
2023-01-06T18:29:28.228Z,7.9
2023-01-06T18:31:28.341Z,7.9
2023-01-06T18:33:30.058Z,7.9
2023-01-06T18:35:28.023Z,7.9
2023-01-06T18:37:26.373Z,8
2023-01-06T18:41:27.653Z,7.9
2023-01-06T18:43:29.400Z,7.8
2023-01-06T18:47:26.326Z,7.8
2023-01-06T18:49:28.598Z,7.9
2023-01-06T18:53:29.514Z,7.9
2023-01-06T18:55:26.361Z,7.9
2023-01-06T18:57:31.060Z,7.9
2023-01-06T18:59:26.294Z,7.8
2023-01-06T19:01:30.461Z,7.8
2023-01-06T19:03:30.838Z,7.9
2023-01-06T19:05:30.325Z,7.9
2023-01-06T19:07:30.761Z,7.9
2023-01-06T19:09:31.182Z,7.9
2023-01-06T19:11:31.187Z,7.8
2023-01-06T19:13:31.387Z,7.9
2023-01-06T19:15:31.274Z,7.9
2023-01-06T19:17:28.986Z,7.9
2023-01-06T19:19:27.657Z,7.9
2023-01-06T19:21:31.310Z,7.9
2023-01-06T19:23:30.614Z,7.8
2023-01-06T19:25:29.959Z,7.9
2023-01-06T19:27:30.710Z,7.8
2023-01-06T19:29:26.663Z,7.8
2023-01-06T19:31:29.310Z,7.8
2023-01-06T19:33:33.580Z,7.8
2023-01-06T19:35:29.959Z,7.7
2023-01-06T19:37:26.704Z,7.8
2023-01-06T19:39:30.966Z,7.8
2023-01-06T19:41:29.891Z,7.8
2023-01-06T19:43:26.314Z,7.8
2023-01-06T19:45:32.517Z,7.8
2023-01-06T19:47:30.454Z,7.8
2023-01-06T19:49:28.308Z,7.8
2023-01-06T19:51:30.967Z,7.8
2023-01-06T19:53:30.372Z,7.8
2023-01-06T19:55:30.264Z,7.8
2023-01-06T19:57:30.864Z,7.8
2023-01-06T19:59:26.318Z,7.8
2023-01-06T20:01:30.848Z,7.8
2023-01-06T20:05:29.608Z,7.8
2023-01-06T20:07:26.704Z,7.8
2023-01-06T20:09:32.656Z,7.7
2023-01-06T20:11:30.337Z,7.7
2023-01-06T20:13:28.512Z,7.7
2023-01-06T20:15:31.386Z,7.7
2023-01-06T20:17:30.302Z,7.7
2023-01-06T20:19:30.429Z,7.7
2023-01-06T20:21:30.951Z,7.7
2023-01-06T20:23:28.041Z,7.7
2023-01-06T20:25:29.819Z,7.7
2023-01-06T20:27:31.109Z,7.6
2023-01-06T20:29:28.961Z,7.6
2023-01-06T20:31:30.432Z,7.6
2023-01-06T20:33:31.210Z,7.6
2023-01-06T20:35:30.007Z,7.6
2023-01-06T20:37:30.482Z,7.7
2023-01-06T20:41:29.817Z,7.6
2023-01-06T20:43:29.476Z,7.6
2023-01-06T20:45:31.190Z,7.7
2023-01-06T20:49:28.085Z,7.6
2023-01-06T20:51:30.922Z,7.6
2023-01-06T20:53:29.800Z,7.6
2023-01-06T20:55:30.363Z,7.6
2023-01-06T20:57:31.221Z,7.6
2023-01-06T20:59:29.949Z,7.6
2023-01-06T21:01:29.371Z,7.6
2023-01-06T21:03:31.065Z,7.6
2023-01-06T21:05:28.076Z,7.6
2023-01-06T21:07:31.805Z,7.6
2023-01-06T21:09:31.054Z,7.6
2023-01-06T21:11:26.664Z,7.6
2023-01-06T21:13:29.440Z,7.6
2023-01-06T21:15:30.984Z,7.5
2023-01-06T21:17:28.973Z,7.5
2023-01-06T21:19:28.007Z,7.6
2023-01-06T21:21:31.280Z,7.6
2023-01-06T21:23:30.727Z,7.6
2023-01-06T21:25:30.492Z,7.6
2023-01-06T21:27:31.477Z,7.7
2023-01-06T21:29:30.351Z,7.6
2023-01-06T21:31:28.081Z,7.6
2023-01-06T21:33:31.356Z,7.5
2023-01-06T21:35:29.081Z,7.5
2023-01-06T21:37:26.724Z,7.5
2023-01-06T21:39:30.943Z,7.5
2023-01-06T21:41:28.579Z,7.5
2023-01-06T21:43:26.719Z,7.5
2023-01-06T21:45:29.993Z,7.4
2023-01-06T21:47:30.835Z,7.5
2023-01-06T21:49:29.910Z,7.5
2023-01-06T21:51:30.706Z,7.5
2023-01-06T21:53:30.690Z,7.6
2023-01-06T21:55:30.424Z,7.5
2023-01-06T21:57:31.065Z,7.5
2023-01-06T21:59:30.831Z,7.5
2023-01-06T22:01:29.547Z,7.5
2023-01-06T22:05:28.891Z,7.4
2023-01-06T22:07:29.489Z,7.4
2023-01-06T22:09:31.371Z,7.4
2023-01-06T22:11:30.466Z,7.4
2023-01-06T22:13:28.720Z,7.4
2023-01-06T22:15:31.134Z,7.4
2023-01-06T22:17:30.377Z,7.3
2023-01-06T22:19:29.417Z,7.3
2023-01-06T22:21:31.165Z,7.3
2023-01-06T22:23:26.694Z,7.3
2023-01-06T22:25:30.742Z,7.3
2023-01-06T22:27:30.817Z,7.3
2023-01-06T22:29:30.397Z,7.4
2023-01-06T22:31:30.335Z,7.3
2023-01-06T22:35:30.330Z,7.5
2023-01-06T22:37:29.672Z,7.4
2023-01-06T22:39:30.935Z,7.4
2023-01-06T22:41:26.719Z,7.4
2023-01-06T22:43:30.799Z,7.4
2023-01-06T22:47:29.600Z,7.4
2023-01-06T22:49:29.510Z,7.5
2023-01-06T22:51:31.148Z,7.5
2023-01-06T22:53:27.445Z,7.5
2023-01-06T22:55:28.851Z,7.5
2023-01-06T22:59:27.643Z,7.4
2023-01-06T23:01:30.031Z,7.4
2023-01-06T23:03:31.490Z,7.4
2023-01-06T23:05:29.926Z,7.4
2023-01-06T23:07:26.828Z,7.4
2023-01-06T23:09:31.130Z,7.3
2023-01-06T23:11:28.615Z,7.4
2023-01-06T23:13:28.987Z,7.3
2023-01-06T23:15:31.242Z,7.3
2023-01-06T23:17:28.460Z,7.4
2023-01-06T23:19:29.483Z,7.3
2023-01-06T23:23:29.459Z,7.3
2023-01-06T23:25:29.925Z,7.4
2023-01-06T23:27:31.199Z,7.5
2023-01-06T23:29:30.002Z,7.4
2023-01-06T23:31:29.490Z,7.4
2023-01-06T23:35:26.348Z,7.4
2023-01-06T23:37:29.418Z,7.4
2023-01-06T23:39:30.988Z,7.5
2023-01-06T23:41:26.741Z,7.4
2023-01-06T23:43:31.548Z,7.5
2023-01-06T23:45:31.132Z,7.5
2023-01-06T23:47:28.570Z,7.4
2023-01-06T23:49:28.671Z,7.4
2023-01-06T23:53:30.331Z,7.3
2023-01-06T23:55:30.362Z,7.4
2023-01-06T23:59:30.481Z,7.4
